createdAt,value
2023-08-16T00:01:14.994Z,74.59
2023-08-16T00:03:42.705Z,74.85
2023-08-16T00:06:12.276Z,75.30
2023-08-16T00:08:40.583Z,75.63
2023-08-16T00:11:08.937Z,75.99
2023-08-16T00:13:36.539Z,76.19
2023-08-16T00:16:03.929Z,76.49
2023-08-16T00:18:31.772Z,76.73
2023-08-16T00:21:02.292Z,76.78
2023-08-16T00:23:29.845Z,77.02
2023-08-16T00:25:57.959Z,77.19
2023-08-16T00:28:25.331Z,76.90
2023-08-16T00:30:55.425Z,76.75
2023-08-16T00:33:23.079Z,77.07
2023-08-16T00:35:53.773Z,77.29
2023-08-16T00:38:20.928Z,77.17
2023-08-16T00:40:50.055Z,77.25
2023-08-16T00:43:18.111Z,77.39
2023-08-16T00:45:48.735Z,77.05
2023-08-16T00:48:16.682Z,77.40
2023-08-16T00:50:44.996Z,77.09
2023-08-16T00:53:15.187Z,77.12
2023-08-16T00:55:42.375Z,76.99
2023-08-16T00:58:09.721Z,76.98
2023-08-16T01:00:37.471Z,77.15
2023-08-16T01:03:04.652Z,77.37
2023-08-16T01:05:32.305Z,77.29
2023-08-16T01:08:01.076Z,77.14
2023-08-16T01:11:42.294Z,77.45
2023-08-16T01:14:25.592Z,77.45
2023-08-16T01:16:54.716Z,77.57
2023-08-16T01:19:30.249Z,78.37
2023-08-16T01:22:17.643Z,78.08
2023-08-16T01:25:21.794Z,78.04
2023-08-16T01:27:52.803Z,78.10
2023-08-16T01:30:22.054Z,77.99
2023-08-16T01:32:49.937Z,78.04
2023-08-16T01:35:17.402Z,78.22
2023-08-16T01:37:46.413Z,78.32
2023-08-16T01:40:14.393Z,78.33
2023-08-16T01:42:49.597Z,78.03
2023-08-16T01:45:19.724Z,78.15
2023-08-16T01:47:48.680Z,78.10
2023-08-16T01:50:17.561Z,77.87
2023-08-16T01:52:44.882Z,77.92
2023-08-16T01:55:12.227Z,78.16
2023-08-16T01:57:39.309Z,78.53
2023-08-16T02:00:07.617Z,78.04
2023-08-16T02:02:42.485Z,78.29
2023-08-16T02:05:09.881Z,77.99
2023-08-16T02:07:38.939Z,77.97
2023-08-16T02:10:06.586Z,77.96
2023-08-16T02:12:34.521Z,78.04
2023-08-16T02:15:01.957Z,77.98
2023-08-16T02:17:29.055Z,77.99
2023-08-16T02:19:56.223Z,78.12
2023-08-16T02:22:24.950Z,78.55
2023-08-16T02:24:52.972Z,78.56
2023-08-16T02:27:20.076Z,78.65
2023-08-16T02:29:47.211Z,78.26
2023-08-16T02:32:14.283Z,78.22
2023-08-16T02:34:41.361Z,78.88
2023-08-16T02:37:08.477Z,79.12
2023-08-16T02:39:35.550Z,78.99
2023-08-16T02:42:03.046Z,79.64
2023-08-16T02:44:30.125Z,79.55
2023-08-16T02:46:57.829Z,79.59
2023-08-16T02:49:24.887Z,79.69
2023-08-16T02:51:51.956Z,79.51
2023-08-16T02:54:19.058Z,80.29
2023-08-16T02:56:46.120Z,80.09
2023-08-16T02:59:15.265Z,80.38
2023-08-16T03:01:42.530Z,80.64
2023-08-16T03:04:11.365Z,80.79
2023-08-16T03:06:38.411Z,81.12
2023-08-16T03:09:05.830Z,81.32
2023-08-16T03:11:32.889Z,80.86
2023-08-16T03:14:00.046Z,81.69
2023-08-16T03:16:27.187Z,81.79
2023-08-16T03:18:57.650Z,82.06
2023-08-16T03:21:24.734Z,82.38
2023-08-16T03:23:52.744Z,82.04
2023-08-16T03:26:19.938Z,82.39
2023-08-16T03:28:47.890Z,82.53
2023-08-16T03:31:15.176Z,81.99
2023-08-16T03:33:43.266Z,82.06
2023-08-16T03:36:10.582Z,81.86
2023-08-16T03:38:38.045Z,82.41
2023-08-16T03:41:05.378Z,82.66
2023-08-16T03:43:32.491Z,82.79
2023-08-16T03:46:00.212Z,82.89
2023-08-16T03:48:28.439Z,83.21
2023-08-16T03:50:55.542Z,83.38
2023-08-16T03:53:22.910Z,83.88
2023-08-16T03:55:56.923Z,84.15
2023-08-16T03:58:25.443Z,84.29
2023-08-16T04:00:53.491Z,84.44
2023-08-16T04:03:21.675Z,84.62
2023-08-16T04:05:48.864Z,84.74
2023-08-16T04:08:16.978Z,84.86
2023-08-16T04:10:44.156Z,84.83
2023-08-16T04:13:11.407Z,84.84
2023-08-16T04:15:38.526Z,84.55
2023-08-16T04:18:05.677Z,84.72
2023-08-16T04:20:32.761Z,84.40
2023-08-16T04:23:00.813Z,84.53
2023-08-16T04:25:28.018Z,84.49
2023-08-16T04:27:55.646Z,84.47
2023-08-16T04:30:23.701Z,84.32
2023-08-16T04:32:50.852Z,84.36
2023-08-16T04:35:18.732Z,84.58
2023-08-16T04:37:45.970Z,84.54
2023-08-16T04:40:13.623Z,84.71
2023-08-16T04:42:40.701Z,84.35
2023-08-16T04:45:08.639Z,84.40
2023-08-16T04:47:36.623Z,84.16
2023-08-16T04:50:07.370Z,84.45
2023-08-16T04:52:37.034Z,84.48
2023-08-16T04:55:09.775Z,84.61
2023-08-16T04:57:38.372Z,84.69
2023-08-16T05:00:10.109Z,84.87
2023-08-16T05:02:44.373Z,84.51
2023-08-16T05:05:13.319Z,84.95
2023-08-16T05:07:40.721Z,85.03
2023-08-16T05:10:08.257Z,85.07
2023-08-16T05:12:35.344Z,84.90
2023-08-16T05:15:02.395Z,85.20
2023-08-16T05:17:31.865Z,84.75
2023-08-16T05:19:59.209Z,84.93
2023-08-16T05:22:26.294Z,84.89
2023-08-16T05:24:53.338Z,85.27
2023-08-16T05:27:20.385Z,85.25
2023-08-16T05:29:48.162Z,85.48
2023-08-16T05:32:15.477Z,85.25
2023-08-16T05:34:42.585Z,85.14
2023-08-16T05:37:10.462Z,85.34
2023-08-16T05:39:39.899Z,85.40
2023-08-16T05:42:07.874Z,84.90
2023-08-16T05:44:34.945Z,84.58
2023-08-16T05:47:02.097Z,84.67
2023-08-16T05:49:30.061Z,84.31
2023-08-16T05:51:57.215Z,84.21
2023-08-16T05:54:25.054Z,84.24
2023-08-16T05:56:52.135Z,84.28
2023-08-16T05:59:19.398Z,83.91
2023-08-16T06:01:46.451Z,83.27
2023-08-16T06:04:13.661Z,83.35
2023-08-16T06:06:40.813Z,83.32
2023-08-16T06:09:07.850Z,83.51
2023-08-16T06:11:34.867Z,82.61
2023-08-16T06:14:02.077Z,81.74
2023-08-16T06:16:29.230Z,81.81
2023-08-16T06:18:57.209Z,81.55
2023-08-16T06:21:24.329Z,80.38
2023-08-16T06:23:52.226Z,80.18
2023-08-16T06:26:19.253Z,80.32
2023-08-16T06:28:47.318Z,80.62
2023-08-16T06:31:17.602Z,80.51
2023-08-16T06:33:45.006Z,79.72
2023-08-16T06:36:12.213Z,79.70
2023-08-16T06:38:39.259Z,79.52
2023-08-16T06:41:06.391Z,79.12
2023-08-16T06:43:33.536Z,78.64
2023-08-16T06:46:00.735Z,79.49
2023-08-16T06:48:28.698Z,79.32
2023-08-16T06:50:56.222Z,79.69
2023-08-16T06:53:23.386Z,79.70
2023-08-16T06:55:50.448Z,78.64
2023-08-16T06:58:17.999Z,77.97
2023-08-16T07:00:46.749Z,77.40
2023-08-16T07:03:13.984Z,77.11
2023-08-16T07:05:41.147Z,77.51
2023-08-16T07:08:08.759Z,77.54
2023-08-16T07:10:36.309Z,77.01
2023-08-16T07:13:03.865Z,76.78
2023-08-16T07:15:31.251Z,76.17
2023-08-16T07:17:58.299Z,75.54
2023-08-16T07:20:25.465Z,75.84
2023-08-16T07:22:52.621Z,73.81
2023-08-16T07:25:19.767Z,73.87
2023-08-16T07:27:46.830Z,74.49
2023-08-16T07:30:14.121Z,74.76
2023-08-16T07:32:41.255Z,73.34
2023-08-16T07:35:09.509Z,73.59
2023-08-16T07:37:38.064Z,73.40
2023-08-16T07:40:06.218Z,73.18
2023-08-16T07:42:33.395Z,74.05
2023-08-16T07:45:02.141Z,74.77
2023-08-16T07:47:29.633Z,74.71
2023-08-16T07:49:56.828Z,74.08
2023-08-16T07:52:24.067Z,74.30
2023-08-16T07:54:51.435Z,75.59
2023-08-16T07:57:18.525Z,74.33
2023-08-16T07:59:45.525Z,74.01
2023-08-16T08:02:13.200Z,74.12
2023-08-16T08:04:40.317Z,73.77
2023-08-16T08:07:08.077Z,73.07
2023-08-16T08:09:35.186Z,71.63
2023-08-16T08:12:02.341Z,71.39
2023-08-16T08:14:29.487Z,70.71
2023-08-16T08:16:57.647Z,70.62
2023-08-16T08:19:24.890Z,71.51
2023-08-16T08:21:52.426Z,71.94
2023-08-16T08:24:19.633Z,71.39
2023-08-16T08:26:47.972Z,70.62
2023-08-16T08:29:15.046Z,71.18
2023-08-16T08:31:42.165Z,70.95
2023-08-16T08:34:09.733Z,70.88
2023-08-16T08:36:36.822Z,70.76
2023-08-16T08:39:04.447Z,70.24
2023-08-16T08:41:47.417Z,69.84
2023-08-16T08:44:17.481Z,69.89
2023-08-16T08:46:47.730Z,66.88
2023-08-16T08:49:21.344Z,67.76
2023-08-16T08:51:48.680Z,66.70
2023-08-16T08:54:15.868Z,67.93
2023-08-16T08:56:46.330Z,67.34
2023-08-16T08:59:15.776Z,68.18
2023-08-16T09:01:47.447Z,69.03
2023-08-16T09:04:17.044Z,67.90
2023-08-16T09:06:44.352Z,67.51
2023-08-16T09:09:13.432Z,67.70
2023-08-16T09:11:42.770Z,67.36
2023-08-16T09:14:10.573Z,66.41
2023-08-16T09:16:37.624Z,66.63
2023-08-16T09:19:14.526Z,65.86
2023-08-16T09:21:44.576Z,64.11
2023-08-16T09:24:11.648Z,64.04
2023-08-16T09:26:39.097Z,63.03
2023-08-16T09:29:06.318Z,62.95
2023-08-16T09:31:42.650Z,62.94
2023-08-16T09:34:13.044Z,62.69
2023-08-16T09:36:46.457Z,62.71
2023-08-16T09:39:13.661Z,62.91
2023-08-16T09:41:51.406Z,61.47
2023-08-16T09:44:19.632Z,62.79
2023-08-16T09:49:18.187Z,63.57
2023-08-16T09:54:19.091Z,65.35
2023-08-16T10:01:54.127Z,65.68
2023-08-16T10:04:59.335Z,66.56
2023-08-16T10:07:13.728Z,66.48
2023-08-16T10:09:45.209Z,65.80
2023-08-16T10:12:13.115Z,64.60
2023-08-16T10:14:40.634Z,64.00
2023-08-16T10:17:11.784Z,63.05
2023-08-16T10:19:45.270Z,64.21
2023-08-16T10:22:34.512Z,61.86
2023-08-16T10:25:12.407Z,63.31
2023-08-16T10:27:44.954Z,64.00
2023-08-16T10:30:28.333Z,61.61
2023-08-16T10:33:10.400Z,63.42
2023-08-16T10:35:41.053Z,64.06
2023-08-16T10:38:08.730Z,64.44
2023-08-16T10:40:35.859Z,62.64
2023-08-16T10:43:08.353Z,61.68
2023-08-16T10:48:19.190Z,61.71
2023-08-16T10:50:59.496Z,60.29
2023-08-16T10:53:27.229Z,60.83
2023-08-16T10:55:56.592Z,60.70
2023-08-16T10:58:24.936Z,59.81
2023-08-16T11:01:05.207Z,59.55
2023-08-16T11:03:35.038Z,59.87
2023-08-16T11:06:09.993Z,58.86
2023-08-16T11:08:44.714Z,58.02
2023-08-16T11:11:13.552Z,57.27
2023-08-16T11:13:44.057Z,57.33
2023-08-16T11:16:14.446Z,58.31
2023-08-16T11:18:43.776Z,57.97
2023-08-16T11:21:15.362Z,57.14
2023-08-16T11:23:43.726Z,58.21
2023-08-16T11:26:12.121Z,56.87
2023-08-16T11:28:41.817Z,55.85
2023-08-16T11:31:10.343Z,56.66
2023-08-16T11:33:42.049Z,56.44
2023-08-16T11:36:12.828Z,57.70
2023-08-16T11:38:40.560Z,56.40
2023-08-16T11:41:08.146Z,56.50
2023-08-16T11:43:37.268Z,55.40
2023-08-16T11:46:06.294Z,54.91
2023-08-16T11:48:36.062Z,55.37
2023-08-16T11:51:03.888Z,56.13
2023-08-16T11:53:33.821Z,56.02
2023-08-16T11:56:13.933Z,56.49
2023-08-16T11:58:45.536Z,56.33
2023-08-16T12:01:16.069Z,56.54
2023-08-16T12:03:47.570Z,55.62
2023-08-16T12:06:17.289Z,56.34
2023-08-16T12:08:49.597Z,56.64
2023-08-16T12:11:37.011Z,56.54
2023-08-16T12:14:07.181Z,56.05
2023-08-16T12:16:35.340Z,57.03
2023-08-16T12:19:02.582Z,56.62
2023-08-16T12:21:29.880Z,55.12
2023-08-16T12:23:57.038Z,56.16
2023-08-16T12:26:24.117Z,55.14
2023-08-16T12:28:51.151Z,54.24
2023-08-16T12:31:18.281Z,55.01
2023-08-16T12:33:46.359Z,55.40
2023-08-16T12:36:14.398Z,55.42
2023-08-16T12:38:41.875Z,54.55
2023-08-16T12:41:08.999Z,54.70
2023-08-16T12:43:39.665Z,54.66
2023-08-16T12:46:09.629Z,54.80
2023-08-16T12:48:37.322Z,54.87
2023-08-16T12:51:05.035Z,54.19
2023-08-16T12:53:38.227Z,53.89
2023-08-16T12:56:07.055Z,54.53
2023-08-16T12:58:34.784Z,54.69
2023-08-16T13:03:33.863Z,55.34
2023-08-16T13:08:34.010Z,55.37
2023-08-16T13:11:32.458Z,55.88
2023-08-16T13:14:02.055Z,55.56
2023-08-16T13:16:31.730Z,55.72
2023-08-16T13:19:02.639Z,55.59
2023-08-16T13:29:29.812Z,56.49
2023-08-16T13:37:00.094Z,57.97
2023-08-16T13:39:31.670Z,57.54
2023-08-16T13:42:17.242Z,57.58
2023-08-16T13:45:16.136Z,57.35
2023-08-16T13:47:32.496Z,57.48
2023-08-16T13:49:59.685Z,57.02
2023-08-16T13:52:27.147Z,57.69
2023-08-16T13:54:54.587Z,58.29
2023-08-16T13:57:22.131Z,57.53
2023-08-16T13:59:49.219Z,57.74
2023-08-16T14:02:16.379Z,58.17
2023-08-16T14:04:43.632Z,57.94
2023-08-16T14:07:10.670Z,58.15
2023-08-16T14:09:37.782Z,58.39
2023-08-16T14:12:05.228Z,57.61
2023-08-16T14:14:32.287Z,57.58
2023-08-16T14:16:59.457Z,57.60
2023-08-16T14:19:26.907Z,58.39
2023-08-16T14:21:57.331Z,58.21
2023-08-16T14:24:26.013Z,58.33
2023-08-16T14:26:53.463Z,58.26
2023-08-16T14:29:20.727Z,59.05
2023-08-16T14:31:47.823Z,59.08
2023-08-16T14:34:14.929Z,59.36
2023-08-16T14:36:41.985Z,59.20
2023-08-16T14:39:09.731Z,58.22
2023-08-16T14:41:38.425Z,58.45
2023-08-16T14:44:05.834Z,58.48
2023-08-16T14:46:32.882Z,58.35
2023-08-16T14:49:00.080Z,58.95
2023-08-16T14:51:27.138Z,59.23
2023-08-16T14:53:54.207Z,58.80
2023-08-16T14:56:21.293Z,59.39
2023-08-16T14:58:48.671Z,59.76
2023-08-16T15:01:15.848Z,59.59
2023-08-16T15:03:43.022Z,58.97
2023-08-16T15:06:10.242Z,59.43
2023-08-16T15:08:39.422Z,58.91
2023-08-16T15:11:20.364Z,59.63
2023-08-16T15:13:47.479Z,59.89
2023-08-16T15:16:15.446Z,59.91
2023-08-16T15:18:42.757Z,60.55
2023-08-16T15:21:09.922Z,60.60
2023-08-16T15:23:38.231Z,60.13
2023-08-16T15:26:08.065Z,59.52
2023-08-16T15:28:37.080Z,59.55
2023-08-16T15:31:06.209Z,58.59
2023-08-16T15:33:34.139Z,57.42
2023-08-16T15:36:01.268Z,57.32
2023-08-16T15:38:44.193Z,57.47
2023-08-16T15:41:15.616Z,56.91
2023-08-16T15:43:44.742Z,57.16
2023-08-16T15:46:14.884Z,57.53
2023-08-16T15:48:42.285Z,57.68
2023-08-16T15:51:09.494Z,58.06
2023-08-16T15:53:36.591Z,58.17
2023-08-16T15:56:04.702Z,58.42
2023-08-16T15:58:32.686Z,58.80
2023-08-16T16:01:02.155Z,58.50
2023-08-16T16:03:31.656Z,58.11
2023-08-16T16:05:59.311Z,58.58
2023-08-16T16:08:29.757Z,58.99
2023-08-16T16:10:57.154Z,59.16
2023-08-16T16:13:24.610Z,59.03
2023-08-16T16:15:52.064Z,58.81
2023-08-16T16:18:20.916Z,59.51
2023-08-16T16:20:48.902Z,59.30
2023-08-16T16:23:15.966Z,59.49
2023-08-16T16:25:43.164Z,59.46
2023-08-16T16:28:10.298Z,59.30
2023-08-16T16:30:37.341Z,60.08
2023-08-16T16:33:06.243Z,59.67
2023-08-16T16:35:35.646Z,59.45
2023-08-16T16:38:02.934Z,59.89
2023-08-16T16:40:30.860Z,60.37
2023-08-16T16:42:58.024Z,60.07
2023-08-16T16:45:25.188Z,60.28
2023-08-16T16:47:52.353Z,60.75
2023-08-16T16:50:19.615Z,61.40
2023-08-16T16:52:46.727Z,60.89
2023-08-16T16:55:13.809Z,61.30
2023-08-16T16:57:41.973Z,61.42
2023-08-16T17:00:11.581Z,60.35
2023-08-16T17:02:38.727Z,60.86
2023-08-16T17:05:06.494Z,61.22
2023-08-16T17:07:34.302Z,60.74
2023-08-16T17:10:01.483Z,61.55
2023-08-16T17:12:28.601Z,61.13
2023-08-16T17:14:55.622Z,61.36
2023-08-16T17:17:22.644Z,61.01
2023-08-16T17:19:49.734Z,61.50
2023-08-16T17:22:16.847Z,60.92
2023-08-16T17:24:43.891Z,61.80
2023-08-16T17:27:10.948Z,61.37
2023-08-16T17:29:38.021Z,61.12
2023-08-16T17:32:05.287Z,61.57
2023-08-16T17:34:32.380Z,61.65
2023-08-16T17:36:59.443Z,61.96
2023-08-16T17:39:26.634Z,61.54
2023-08-16T17:41:53.804Z,61.10
2023-08-16T17:44:20.884Z,62.14
2023-08-16T17:46:48.022Z,61.70
2023-08-16T17:49:15.038Z,62.62
2023-08-16T17:51:42.128Z,62.73
2023-08-16T17:54:09.147Z,62.68
2023-08-16T17:56:36.681Z,63.06
2023-08-16T17:59:03.907Z,63.12
2023-08-16T18:01:31.059Z,63.62
2023-08-16T18:03:58.372Z,63.54
2023-08-16T18:06:25.470Z,63.17
2023-08-16T18:08:52.490Z,63.25
2023-08-16T18:11:19.555Z,63.73
2023-08-16T18:13:46.688Z,63.63
2023-08-16T18:16:13.883Z,63.58
2023-08-16T18:18:41.030Z,63.58
2023-08-16T18:21:08.028Z,63.89
2023-08-16T18:23:35.105Z,63.73
2023-08-16T18:26:02.168Z,64.06
2023-08-16T18:28:29.231Z,64.34
2023-08-16T18:30:56.406Z,64.82
2023-08-16T18:33:23.635Z,65.16
2023-08-16T18:35:50.735Z,65.57
2023-08-16T18:38:17.935Z,65.80
2023-08-16T18:40:45.079Z,65.64
2023-08-16T18:43:12.164Z,65.83
2023-08-16T18:45:39.683Z,65.91
2023-08-16T18:48:07.060Z,65.94
2023-08-16T18:50:34.180Z,65.72
2023-08-16T18:53:01.292Z,65.82
2023-08-16T18:55:28.380Z,65.77
2023-08-16T18:57:56.392Z,65.59
2023-08-16T19:00:23.443Z,65.86
2023-08-16T19:02:50.619Z,65.57
2023-08-16T19:05:17.749Z,65.36
2023-08-16T19:07:44.847Z,65.75
2023-08-16T19:10:11.893Z,65.50
2023-08-16T19:12:39.008Z,65.75
2023-08-16T19:15:07.029Z,65.64
2023-08-16T19:17:34.076Z,65.32
2023-08-16T19:20:01.116Z,65.20
2023-08-16T19:22:29.078Z,65.63
2023-08-16T19:24:56.196Z,65.88
2023-08-16T19:27:23.627Z,65.76
2023-08-16T19:29:53.211Z,66.19
2023-08-16T19:32:21.065Z,66.46
2023-08-16T19:34:48.216Z,65.96
2023-08-16T19:37:15.482Z,66.38
2023-08-16T19:39:42.579Z,66.20
2023-08-16T19:42:09.660Z,65.90
2023-08-16T19:44:36.786Z,66.10
2023-08-16T19:47:04.935Z,66.15
2023-08-16T19:49:31.960Z,66.03
2023-08-16T19:51:59.007Z,66.04
2023-08-16T19:54:26.031Z,65.96
2023-08-16T19:56:53.052Z,66.03
2023-08-16T19:59:20.076Z,66.28
2023-08-16T20:01:47.208Z,65.77
2023-08-16T20:04:14.392Z,66.14
2023-08-16T20:06:42.726Z,65.89
2023-08-16T20:09:10.653Z,66.01
2023-08-16T20:11:37.741Z,65.77
2023-08-16T20:14:05.090Z,65.83
2023-08-16T20:16:32.362Z,66.20
2023-08-16T20:18:59.484Z,65.96
2023-08-16T20:21:26.616Z,65.33
2023-08-16T20:23:53.691Z,65.18
2023-08-16T20:26:20.883Z,64.93
2023-08-16T20:28:48.017Z,64.92
2023-08-16T20:31:15.188Z,65.39
2023-08-16T20:33:42.359Z,65.17
2023-08-16T20:36:12.143Z,65.18
2023-08-16T20:38:42.068Z,65.02
2023-08-16T20:41:09.131Z,64.74
2023-08-16T20:43:36.175Z,64.79
2023-08-16T20:46:05.569Z,64.83
2023-08-16T20:48:32.699Z,64.89
2023-08-16T20:50:59.764Z,64.82
2023-08-16T20:53:26.847Z,64.90
2023-08-16T20:55:54.052Z,64.46
2023-08-16T20:58:21.167Z,64.79
2023-08-16T21:00:48.312Z,64.36
2023-08-16T21:03:15.369Z,64.47
2023-08-16T21:05:43.066Z,64.55
2023-08-16T21:08:10.646Z,64.68
2023-08-16T21:10:37.753Z,64.76
2023-08-16T21:13:04.839Z,65.00
2023-08-16T21:15:31.865Z,65.05
2023-08-16T21:17:58.977Z,65.02
2023-08-16T21:20:26.335Z,65.01
2023-08-16T21:22:53.465Z,65.24
2023-08-16T21:25:20.572Z,65.36
2023-08-16T21:27:47.609Z,65.46
2023-08-16T21:30:15.014Z,65.58
2023-08-16T21:32:42.146Z,66.11
2023-08-16T21:35:09.551Z,65.61
2023-08-16T21:37:36.665Z,65.55
2023-08-16T21:40:05.243Z,65.58
2023-08-16T21:42:32.246Z,65.69
2023-08-16T21:44:59.352Z,65.49
2023-08-16T21:47:27.007Z,65.80
2023-08-16T21:49:54.524Z,65.62
2023-08-16T21:52:21.731Z,65.91
2023-08-16T21:54:48.773Z,65.66
2023-08-16T21:57:16.041Z,65.87
2023-08-16T21:59:43.249Z,65.44
2023-08-16T22:02:10.277Z,65.83
2023-08-16T22:04:37.394Z,66.17
2023-08-16T22:07:04.985Z,66.03
2023-08-16T22:09:34.066Z,66.12
2023-08-16T22:12:02.254Z,66.26
2023-08-16T22:14:29.605Z,66.76
2023-08-16T22:16:56.722Z,66.77
2023-08-16T22:19:23.986Z,67.46
2023-08-16T22:21:51.027Z,67.87
2023-08-16T22:24:18.392Z,68.24
2023-08-16T22:26:45.458Z,69.15
2023-08-16T22:29:13.621Z,69.61
2023-08-16T22:31:40.712Z,70.69
2023-08-16T22:34:07.774Z,71.29
2023-08-16T22:36:35.319Z,71.67
2023-08-16T22:39:02.917Z,72.56
2023-08-16T22:41:29.986Z,72.75
2023-08-16T22:43:57.040Z,73.24
2023-08-16T22:46:24.080Z,73.50
2023-08-16T22:48:51.173Z,73.74
2023-08-16T22:51:18.283Z,74.21
2023-08-16T22:53:45.361Z,74.56
2023-08-16T22:56:12.422Z,74.87
2023-08-16T22:58:44.441Z,75.05
2023-08-16T23:01:12.604Z,74.93
2023-08-16T23:03:39.640Z,75.36
2023-08-16T23:06:06.717Z,75.13
2023-08-16T23:08:33.790Z,75.58
2023-08-16T23:11:00.925Z,75.92
2023-08-16T23:13:27.993Z,76.15
2023-08-16T23:15:55.012Z,76.48
2023-08-16T23:18:22.059Z,76.51
2023-08-16T23:20:49.078Z,76.57
2023-08-16T23:23:16.363Z,77.16
2023-08-16T23:25:43.666Z,77.12
2023-08-16T23:28:10.812Z,77.27
2023-08-16T23:30:38.299Z,77.79
2023-08-16T23:33:05.646Z,77.48
2023-08-16T23:35:32.722Z,77.89
2023-08-16T23:37:59.846Z,77.89
2023-08-16T23:40:27.533Z,77.55
2023-08-16T23:42:54.582Z,78.28
2023-08-16T23:45:21.631Z,77.47
2023-08-16T23:47:48.772Z,77.24
2023-08-16T23:50:16.004Z,77.46
2023-08-16T23:52:43.115Z,77.60
2023-08-16T23:55:10.601Z,77.24
2023-08-16T23:57:37.730Z,76.99
